Time;durP1;ratioP1;P1;durP2;ratioP2;P2;SDS_P1;SDS_P2;PMS_P1;PMS_P2;Temp;Humidity;BMP_temperature;BMP_pressure;BME280_temperature;BME280_humidity;BME280_pressure;Samples;Min_cycle;Max_cycle;Signal;HPM_P1;HPM_P2
2022/06/01 00:00:31;;;;;;;3.27;1.97;;;;;;;13.86;84.06;97489.81;6182840;28;20260;-47
2022/06/01 00:03:38;;;;;;;2.50;2.17;;;;;;;13.91;84.18;97488.38;6183286;28;20225;-47
2022/06/01 00:06:40;;;;;;;2.40;2.20;;;;;;;13.91;83.86;97483.06;6183532;28;20237;-47
2022/06/01 00:09:42;;;;;;;2.50;1.87;;;;;;;13.90;84.14;97486.69;6183060;28;20287;-47
2022/06/01 00:12:45;;;;;;;3.30;1.80;;;;;;;13.91;84.12;97490.19;6184100;28;20679;-47
2022/06/01 00:15:48;;;;;;;1.60;1.50;;;;;;;13.96;83.87;97502.03;6183116;28;20237;-47
2022/06/01 00:18:50;;;;;;;2.10;1.90;;;;;;;13.88;84.25;97496.59;6173343;28;20241;-47
2022/06/01 00:25:14;;;;;;;2.33;2.13;;;;;;;13.82;84.33;97512.28;6182925;28;20299;-47
2022/06/01 00:28:17;;;;;;;3.50;2.50;;;;;;;13.80;84.56;97504.47;6184044;28;20315;-46
2022/06/01 00:31:19;;;;;;;2.83;2.10;;;;;;;13.75;84.07;97503.25;6182170;28;20319;-47
2022/06/01 00:34:22;;;;;;;3.63;2.10;;;;;;;13.71;83.73;97501.88;6181995;28;20324;-46
2022/06/01 00:37:25;;;;;;;1.97;1.80;;;;;;;13.67;84.03;97491.53;6182642;28;20303;-47
2022/06/01 00:40:29;;;;;;;2.10;2.00;;;;;;;13.62;84.22;97500.94;6183079;28;20314;-47
2022/06/01 00:43:57;;;;;;;1.87;1.77;;;;;;;13.61;85.02;97507.22;6183004;28;20248;-45
2022/06/01 00:46:59;;;;;;;4.33;1.97;;;;;;;13.57;84.85;97508.50;6182526;28;20228;-46
2022/06/01 00:50:11;;;;;;;2.43;1.77;;;;;;;13.60;85.00;97508.19;6183292;28;20236;-48
2022/06/01 00:53:17;;;;;;;1.77;1.40;;;;;;;13.55;84.85;97498.06;6181722;28;20712;-48
2022/06/01 00:56:24;;;;;;;1.63;1.53;;;;;;;13.54;84.87;97501.69;6183566;28;20242;-49
2022/06/01 00:59:33;;;;;;;2.20;1.77;;;;;;;13.58;85.02;97499.56;6181969;28;20229;-47
2022/06/01 01:02:36;;;;;;;2.60;1.57;;;;;;;13.59;85.06;97501.22;6178265;28;20218;-47
2022/06/01 01:05:43;;;;;;;1.70;1.60;;;;;;;13.58;85.08;97508.34;6159150;28;20237;-48
2022/06/01 01:08:47;;;;;;;1.93;1.50;;;;;;;13.57;84.88;97513.81;6181770;28;20230;-51
2022/06/01 01:12:05;;;;;;;1.47;1.37;;;;;;;13.52;85.16;97508.09;6181974;28;20320;-49
2022/06/01 01:15:07;;;;;;;2.90;1.27;;;;;;;13.45;85.21;97513.16;6181348;28;20225;-49
2022/06/01 01:18:17;;;;;;;1.47;1.03;;;;;;;13.45;85.01;97510.50;6181904;28;20228;-46
2022/06/01 01:21:35;;;;;;;1.53;1.30;;;;;;;13.42;85.36;97510.78;6181508;28;20253;-51
2022/06/01 01:25:01;;;;;;;1.40;1.30;;;;;;;13.42;85.13;97509.94;6181677;28;20232;-49
2022/06/01 01:28:05;;;;;;;1.10;1.00;;;;;;;13.42;85.48;97507.28;6181351;28;20315;-48
2022/06/01 01:31:16;;;;;;;1.33;1.20;;;;;;;13.45;85.43;97509.66;6182151;28;20249;-47
2022/06/01 01:34:18;;;;;;;1.60;1.23;;;;;;;13.47;85.46;97510.38;6181319;28;20588;-50
2022/06/01 01:37:25;;;;;;;1.70;1.23;;;;;;;13.46;85.42;97511.34;6181214;28;20278;-48
2022/06/01 01:40:27;;;;;;;2.20;1.77;;;;;;;13.45;85.38;97507.84;6182498;28;20236;-50
2022/06/01 01:43:32;;;;;;;1.40;1.30;;;;;;;13.45;85.86;97502.56;6180979;28;20243;-48
2022/06/01 01:46:35;;;;;;;1.57;1.13;;;;;;;13.44;85.79;97497.38;6181258;28;20284;-48
2022/06/01 01:49:38;;;;;;;1.23;1.13;;;;;;;13.41;85.94;97497.66;6181408;28;20243;-48
2022/06/01 01:52:41;;;;;;;1.20;1.10;;;;;;;13.35;86.20;97500.91;6181136;28;20237;-46
2022/06/01 01:56:01;;;;;;;1.53;1.40;;;;;;;13.32;86.48;97509.16;6181545;28;20272;-47
2022/06/01 01:59:14;;;;;;;1.73;1.30;;;;;;;13.29;85.95;97508.44;6181078;28;20280;-45
2022/06/01 02:02:26;;;;;;;1.83;1.37;;;;;;;13.26;85.97;97510.56;6181104;28;20287;-47
2022/06/01 02:09:05;;;;;;;2.07;1.30;;;;;;;13.05;86.32;97505.44;6181675;28;20265;-52
2022/06/01 02:15:33;;;;;;;1.87;1.10;;;;;;;12.99;86.25;97500.69;6181829;28;20233;-46
2022/06/01 02:18:45;;;;;;;1.00;1.00;;;;;;;12.97;86.71;97505.31;6181174;28;20270;-50
2022/06/01 02:21:47;;;;;;;1.00;1.00;;;;;;;12.96;87.01;97510.75;6180157;28;20252;-51
2022/06/01 02:24:49;;;;;;;1.63;1.30;;;;;;;12.85;86.64;97506.44;6181610;28;20701;-48
2022/06/01 02:27:57;;;;;;;2.50;1.20;;;;;;;12.73;86.64;97502.25;6180652;28;20289;-47
2022/06/01 02:31:00;;;;;;;1.47;1.37;;;;;;;12.69;86.92;97498.22;6180718;28;20644;-47
2022/06/01 02:34:04;;;;;;;1.23;1.20;;;;;;;12.63;87.13;97499.63;6180917;28;20611;-45
2022/06/01 02:37:08;;;;;;;1.00;1.00;;;;;;;12.63;87.12;97504.91;6180462;28;20338;-48
2022/06/01 02:40:16;;;;;;;1.20;1.10;;;;;;;12.61;87.11;97503.38;6180798;28;20239;-47
2022/06/01 02:43:18;;;;;;;1.07;1.07;;;;;;;12.51;86.94;97514.81;6180341;28;20244;-50
2022/06/01 02:46:21;;;;;;;1.33;1.23;;;;;;;12.47;87.31;97517.88;6180635;28;20393;-48
2022/06/01 02:49:24;;;;;;;2.57;1.47;;;;;;;12.48;86.50;97512.44;6180598;28;20237;-47
2022/06/01 02:52:27;;;;;;;1.20;1.10;;;;;;;12.51;86.62;97520.09;6180548;28;20233;-46
2022/06/01 02:55:30;;;;;;;1.20;1.10;;;;;;;12.52;86.73;97513.84;6180600;28;20627;-46
2022/06/01 02:58:34;;;;;;;1.30;1.20;;;;;;;12.50;86.92;97520.25;6179882;28;20259;-46
2022/06/01 03:01:45;;;;;;;1.20;1.10;;;;;;;12.42;87.09;97520.94;6185805;28;20277;-45
2022/06/01 03:04:47;;;;;;;1.17;1.07;;;;;;;12.35;87.12;97519.81;6180418;28;20352;-51
2022/06/01 03:07:50;;;;;;;1.43;1.10;;;;;;;12.28;87.51;97533.75;6180725;28;20246;-49
2022/06/01 03:10:54;;;;;;;1.33;1.23;;;;;;;12.26;87.25;97511.88;6180646;28;20711;-48
2022/06/01 03:13:56;;;;;;;1.20;1.20;;;;;;;12.24;87.52;97519.94;6179794;28;20561;-46
2022/06/01 03:16:58;;;;;;;1.30;1.20;;;;;;;12.19;87.52;97515.06;6180437;28;20620;-51
2022/06/01 03:20:01;;;;;;;1.30;1.27;;;;;;;12.19;87.45;97509.75;6183527;28;20228;-48
2022/06/01 03:23:04;;;;;;;2.83;1.27;;;;;;;12.15;87.52;97518.13;6184493;28;20239;-49
2022/06/01 03:26:06;;;;;;;1.37;1.27;;;;;;;12.05;87.59;97512.81;6184407;28;20332;-47
2022/06/01 03:29:09;;;;;;;1.10;1.00;;;;;;;12.04;87.78;97512.94;6184436;28;20571;-47
2022/06/01 03:32:12;;;;;;;1.30;1.20;;;;;;;12.04;87.78;97526.19;6183499;28;20698;-49
2022/06/01 03:35:17;;;;;;;3.27;1.30;;;;;;;12.04;87.95;97518.25;6184767;28;20235;-48
2022/06/01 03:38:19;;;;;;;1.40;1.30;;;;;;;12.01;88.00;97522.00;6184192;28;20239;-46
2022/06/01 03:41:22;;;;;;;1.73;1.30;;;;;;;11.98;88.04;97516.97;6182712;28;20315;-47
2022/06/01 03:47:45;;;;;;;1.20;1.10;;;;;;;11.93;88.01;97519.19;6184766;28;20239;-49
2022/06/01 03:50:47;;;;;;;2.13;1.40;;;;;;;11.96;88.29;97526.03;6183251;28;20298;-51
2022/06/01 03:53:49;;;;;;;2.07;1.23;;;;;;;11.94;88.40;97526.16;6183207;28;20737;-46
2022/06/01 03:56:51;;;;;;;2.23;1.10;;;;;;;11.94;88.26;97530.59;6184218;28;20240;-51
2022/06/01 03:59:53;;;;;;;1.40;1.30;;;;;;;11.96;88.39;97533.97;6183121;28;20236;-51
2022/06/01 04:02:55;;;;;;;1.60;1.50;;;;;;;11.95;88.58;97535.78;6182938;28;20589;-49
2022/06/01 04:05:58;;;;;;;1.80;1.40;;;;;;;11.94;88.45;97539.38;6182469;28;20243;-47
2022/06/01 04:09:00;;;;;;;2.40;1.50;;;;;;;11.94;88.89;97535.91;6182667;28;20243;-48
2022/06/01 04:12:02;;;;;;;1.13;1.13;;;;;;;11.92;88.72;97538.69;6180530;28;20232;-46
2022/06/01 04:15:06;;;;;;;1.33;1.23;;;;;;;11.93;88.91;97531.56;6183846;28;20298;-46
2022/06/01 04:18:09;;;;;;;1.63;1.27;;;;;;;11.91;88.93;97525.59;6182639;28;20236;-46
2022/06/01 04:21:12;;;;;;;1.47;1.10;;;;;;;11.93;89.18;97542.16;6182947;28;20227;-48
2022/06/01 04:24:19;;;;;;;1.43;1.20;;;;;;;11.98;89.19;97534.66;6182136;28;20232;-47
2022/06/01 04:27:21;;;;;;;3.40;1.67;;;;;;;11.98;89.09;97543.41;6187415;28;20239;-45
2022/06/01 04:30:23;;;;;;;1.60;1.40;;;;;;;12.03;88.74;97543.03;6186742;28;20706;-46
2022/06/01 04:33:27;;;;;;;2.00;1.40;;;;;;;12.09;89.33;97545.09;6183011;28;20710;-45
2022/06/01 04:36:29;;;;;;;2.30;1.17;;;;;;;12.19;89.36;97551.25;6182811;28;20596;-47
2022/06/01 04:39:32;;;;;;;3.30;1.20;;;;;;;12.30;88.74;97551.13;6182411;28;20738;-46
2022/06/01 04:42:35;;;;;;;1.93;1.30;;;;;;;12.41;88.30;97555.47;6182034;28;20766;-45
2022/06/01 04:45:37;;;;;;;1.47;1.37;;;;;;;12.50;88.10;97542.25;6182586;28;20584;-46
2022/06/01 04:48:39;;;;;;;1.40;1.30;;;;;;;12.59;87.08;97553.81;6181832;28;20806;-50
2022/06/01 04:51:41;;;;;;;1.83;1.07;;;;;;;12.81;85.91;97550.06;6181888;28;20283;-49
2022/06/01 04:54:43;;;;;;;4.70;0.90;;;;;;;12.91;85.60;97550.88;6182614;28;20244;-49
2022/06/01 04:57:45;;;;;;;1.23;0.90;;;;;;;13.02;82.72;97552.56;6181664;28;20668;-47
2022/06/01 05:00:47;;;;;;;2.03;0.93;;;;;;;13.33;80.97;97553.22;6164629;28;20699;-46
2022/06/01 05:03:50;;;;;;;1.13;0.90;;;;;;;13.55;77.38;97556.38;6179865;28;20240;-47
2022/06/01 05:06:52;;;;;;;1.23;0.93;;;;;;;13.74;77.89;97560.78;6181534;28;20271;-46
2022/06/01 05:09:54;;;;;;;1.67;0.77;;;;;;;13.76;78.62;97566.78;6179462;28;20310;-46
2022/06/01 05:12:56;;;;;;;2.30;0.70;;;;;;;13.81;78.24;97563.66;6181750;28;20331;-48
2022/06/01 05:16:04;;;;;;;1.20;0.93;;;;;;;13.84;78.32;97568.69;6182205;28;20239;-48
2022/06/01 05:19:07;;;;;;;0.70;0.70;;;;;;;13.83;78.69;97570.50;6180106;28;20722;-50
2022/06/01 05:22:09;;;;;;;1.13;0.90;;;;;;;13.78;79.76;97580.69;6229551;28;20687;-49
2022/06/01 05:25:11;;;;;;;2.93;0.90;;;;;;;13.72;80.52;97576.00;6252746;28;20266;-47
2022/06/01 05:28:17;;;;;;;1.00;0.90;;;;;;;13.67;81.25;97591.53;6254234;28;20648;-46
2022/06/01 05:31:20;;;;;;;1.23;1.00;;;;;;;13.62;81.73;97581.34;6253334;28;20296;-45
2022/06/01 05:34:22;;;;;;;1.30;1.10;;;;;;;13.59;82.34;97588.72;6252816;28;20694;-47
2022/06/01 05:37:24;;;;;;;2.07;1.10;;;;;;;13.58;82.99;97587.88;6254395;28;20230;-48
2022/06/01 05:40:27;;;;;;;2.20;1.00;;;;;;;13.63;82.76;97601.56;6253851;28;20686;-46
2022/06/01 05:43:29;;;;;;;2.30;0.80;;;;;;;13.69;82.65;97600.13;6253010;28;20234;-47
2022/06/01 05:46:35;;;;;;;1.30;0.90;;;;;;;13.88;81.14;97604.53;6253576;28;20231;-48
2022/06/01 05:49:37;;;;;;;2.37;1.03;;;;;;;14.10;79.95;97603.34;6253262;28;20235;-46
2022/06/01 05:52:39;;;;;;;1.10;1.00;;;;;;;14.24;79.56;97605.50;6253239;28;20296;-46
2022/06/01 05:55:41;;;;;;;2.90;1.00;;;;;;;14.37;78.01;97603.34;6252561;28;20218;-48
2022/06/01 05:58:43;;;;;;;1.20;0.90;;;;;;;14.46;78.11;97615.78;6260230;28;20234;-47
2022/06/01 06:01:51;;;;;;;1.13;0.93;;;;;;;14.60;75.36;97606.44;6252791;28;20242;-46
2022/06/01 06:04:54;;;;;;;3.93;1.00;;;;;;;14.81;75.58;97614.13;6252572;28;20235;-45
2022/06/01 06:07:57;;;;;;;1.27;0.90;;;;;;;14.89;75.48;97616.84;6252149;28;20245;-49
2022/06/01 06:10:59;;;;;;;1.07;1.07;;;;;;;15.01;73.64;97613.00;6252291;28;20227;-48
2022/06/01 06:14:02;;;;;;;2.87;1.10;;;;;;;15.27;72.98;97613.06;6252939;28;20234;-49
2022/06/01 06:17:04;;;;;;;2.20;0.97;;;;;;;15.38;73.78;97618.94;6235261;28;20261;-46
2022/06/01 06:20:08;;;;;;;3.43;0.97;;;;;;;15.42;73.83;97624.81;6253029;28;20237;-46
2022/06/01 06:23:11;;;;;;;2.00;1.03;;;;;;;15.51;73.86;97621.22;6252870;28;20922;-46
2022/06/01 06:26:15;;;;;;;1.83;0.87;;;;;;;15.63;74.13;97635.13;6252490;28;20310;-46
2022/06/01 06:29:19;;;;;;;0.93;0.90;;;;;;;15.80;73.46;97639.56;6252886;28;20226;-50
2022/06/01 06:32:22;;;;;;;1.67;1.07;;;;;;;16.01;71.91;97631.19;6252837;28;20740;-46
2022/06/01 06:35:24;;;;;;;3.03;0.93;;;;;;;16.31;71.07;97638.66;6253093;28;20288;-46
2022/06/01 06:38:28;;;;;;;1.03;0.80;;;;;;;16.51;71.11;97636.59;6236473;28;20242;-45
2022/06/01 06:41:31;;;;;;;3.30;0.90;;;;;;;16.67;70.93;97636.66;6240147;28;20314;-46
2022/06/01 06:44:36;;;;;;;1.80;0.90;;;;;;;16.89;69.77;97640.53;6234667;28;20226;-48
2022/06/01 06:47:40;;;;;;;2.30;0.80;;;;;;;17.14;68.47;97641.44;6252279;28;20227;-46
2022/06/01 06:50:42;;;;;;;0.70;0.70;;;;;;;17.34;68.15;97648.94;6252348;28;20230;-48
2022/06/01 06:53:55;;;;;;;1.30;0.80;;;;;;;17.65;66.14;97642.97;6255144;28;20223;-47
2022/06/01 06:56:57;;;;;;;0.97;0.80;;;;;;;17.87;65.22;97652.94;6240095;28;20705;-49
2022/06/01 06:59:59;;;;;;;2.93;0.80;;;;;;;18.04;64.51;97649.25;6275314;28;20221;-49
2022/06/01 07:03:02;;;;;;;1.43;0.90;;;;;;;18.20;64.27;97653.69;6261630;28;20246;-46
2022/06/01 07:06:11;;;;;;;2.63;0.80;;;;;;;18.20;63.18;97656.38;6257848;28;20734;-47
2022/06/01 07:09:14;;;;;;;0.80;0.60;;;;;;;18.36;61.85;97652.84;6256288;28;20309;-48
2022/06/01 07:12:16;;;;;;;1.50;0.83;;;;;;;18.62;61.10;97663.28;6256603;28;20226;-46
2022/06/01 07:15:18;;;;;;;1.90;0.70;;;;;;;18.79;60.54;97664.84;6256462;28;20277;-49
2022/06/01 07:18:21;;;;;;;4.13;0.80;;;;;;;19.18;60.58;97659.44;6255936;28;20219;-47
2022/06/01 07:21:23;;;;;;;0.63;0.50;;;;;;;19.41;58.84;97662.13;6256662;28;20338;-51
2022/06/01 07:24:25;;;;;;;3.43;0.70;;;;;;;19.78;58.24;97662.16;6255703;28;20306;-51
2022/06/01 07:27:28;;;;;;;1.13;0.90;;;;;;;19.99;57.43;97661.47;6256494;28;20301;-46
2022/06/01 07:30:30;;;;;;;0.83;0.70;;;;;;;20.23;57.35;97679.97;6256493;28;20244;-44
2022/06/01 07:33:32;;;;;;;1.20;1.00;;;;;;;20.05;55.48;97665.28;6238984;28;20227;-47
2022/06/01 07:36:35;;;;;;;2.00;0.77;;;;;;;20.15;55.39;97665.84;6257046;28;20293;-49
2022/06/01 07:43:06;;;;;;;0.83;0.60;;;;;;;21.03;51.85;97673.84;6247611;28;20231;-46
2022/06/01 07:46:08;;;;;;;1.00;0.80;;;;;;;21.02;52.74;97669.50;6238116;28;20231;-45
2022/06/01 07:49:10;;;;;;;0.70;0.70;;;;;;;21.49;52.41;97671.66;6256139;28;20226;-46
2022/06/01 07:52:34;;;;;;;1.70;0.67;;;;;;;21.90;51.40;97676.34;6256541;28;20269;-45
2022/06/01 07:55:37;;;;;;;2.53;0.70;;;;;;;21.69;51.52;97675.34;6255938;28;20284;-49
2022/06/01 07:58:39;;;;;;;0.87;0.70;;;;;;;21.92;50.93;97675.16;6244970;28;20239;-46
2022/06/01 08:02:00;;;;;;;0.90;0.80;;;;;;;22.01;48.28;97692.81;6258898;28;20364;-49
2022/06/01 08:05:02;;;;;;;0.80;0.70;;;;;;;21.87;48.18;97674.03;6255634;28;20695;-47
2022/06/01 08:08:04;;;;;;;1.40;0.80;;;;;;;22.18;48.73;97684.44;6255079;28;20363;-46
2022/06/01 08:11:07;;;;;;;1.27;0.73;;;;;;;22.29;47.68;97667.78;6255625;28;20281;-46
2022/06/01 08:14:11;;;;;;;1.17;0.73;;;;;;;22.44;47.66;97677.41;6256553;28;20736;-48
2022/06/01 08:17:13;;;;;;;1.23;0.90;;;;;;;22.90;47.91;97679.50;6255537;28;20280;-46
2022/06/01 08:20:16;;;;;;;2.73;1.20;;;;;;;23.14;48.17;97679.00;6259554;28;20237;-51
2022/06/01 08:23:22;;;;;;;0.63;0.63;;;;;;;23.18;47.13;97679.41;6268714;28;20829;-50
2022/06/01 08:26:25;;;;;;;2.37;0.67;;;;;;;23.55;46.25;97680.78;6231276;28;20230;-48
2022/06/01 08:29:28;;;;;;;1.17;0.70;;;;;;;23.64;45.82;97686.78;6258693;28;20227;-48
2022/06/01 08:32:31;;;;;;;1.43;0.67;;;;;;;24.08;45.86;97672.69;6260390;28;20373;-47
2022/06/01 08:35:38;;;;;;;3.73;0.73;;;;;;;24.43;45.56;97676.81;6260325;28;20308;-46
2022/06/01 08:38:42;;;;;;;0.70;0.70;;;;;;;24.52;44.19;97691.75;6254497;28;20227;-48
2022/06/01 08:41:44;;;;;;;1.47;0.80;;;;;;;24.62;44.08;97683.22;6254262;28;20736;-49
2022/06/01 08:44:49;;;;;;;1.07;0.77;;;;;;;24.69;44.03;97675.91;6254547;28;20698;-48
2022/06/01 08:47:51;;;;;;;1.33;0.70;;;;;;;24.81;43.79;97674.22;6254705;28;20227;-52
2022/06/01 08:50:53;;;;;;;0.93;0.70;;;;;;;24.47;44.88;97683.44;6254761;28;20250;-49
2022/06/01 08:53:57;;;;;;;0.80;0.77;;;;;;;24.61;44.24;97678.84;6254625;28;20227;-46
2022/06/01 08:57:06;;;;;;;0.83;0.67;;;;;;;24.96;44.06;97668.56;6254754;28;20231;-49
2022/06/01 09:00:10;;;;;;;1.30;0.80;;;;;;;25.46;43.59;97680.34;6255317;28;20298;-51
2022/06/01 09:03:27;;;;;;;1.27;0.80;;;;;;;25.50;41.19;97683.47;6236334;28;20316;-49
2022/06/01 09:06:48;;;;;;;2.13;0.90;;;;;;;25.19;41.65;97676.16;6245118;28;20227;-50
2022/06/01 09:10:18;;;;;;;2.00;0.80;;;;;;;25.42;42.98;97681.03;6254245;28;21074;-49
2022/06/01 09:13:37;;;;;;;0.63;0.63;;;;;;;24.72;43.71;97678.19;6230551;28;20261;-50
2022/06/01 09:16:45;;;;;;;1.73;1.00;;;;;;;24.76;44.46;97683.97;6253319;28;20253;-49
2022/06/01 09:23:15;;;;;;;1.53;0.90;;;;;;;26.19;41.72;97683.38;6252998;28;20227;-50
2022/06/01 09:26:28;;;;;;;1.38;1.08;;;;;;;26.68;41.23;97676.25;6253459;28;20243;-51
2022/06/01 09:29:34;;;;;;;1.60;0.90;;;;;;;27.09;41.21;97670.16;6253500;28;20235;-49
2022/06/01 09:32:41;;;;;;;0.70;0.70;;;;;;;26.82;39.89;97686.72;6253138;28;20235;-50
2022/06/01 09:35:46;;;;;;;2.35;1.00;;;;;;;26.97;39.63;97688.22;6253946;28;20718;-47
2022/06/01 09:38:51;;;;;;;1.98;0.80;;;;;;;26.35;39.89;97677.41;6228406;28;20231;-50
2022/06/01 09:42:11;;;;;;;0.80;0.80;;;;;;;26.24;41.65;97674.59;6251922;28;20707;-49
2022/06/01 09:45:22;;;;;;;3.25;0.80;;;;;;;26.24;39.33;97675.44;6252391;28;20776;-52
2022/06/01 09:48:35;;;;;;;0.80;0.80;;;;;;;26.74;41.03;97684.31;6253026;28;20236;-50
2022/06/01 09:51:41;;;;;;;1.67;0.73;;;;;;;27.63;39.45;97673.81;6252856;28;20703;-51
2022/06/01 09:54:45;;;;;;;2.60;0.70;;;;;;;27.83;37.95;97682.47;6252875;28;20316;-49
2022/06/01 09:58:09;;;;;;;1.85;1.00;;;;;;;27.43;37.08;97668.66;6252788;28;20686;-49
2022/06/01 10:08:26;;;;;;;1.27;0.88;;;;;;;28.22;35.54;97672.88;6253065;28;20231;-50
2022/06/01 10:11:40;;;;;;;1.40;0.90;;;;;;;28.63;36.81;97667.31;6253209;28;20760;-50
2022/06/01 10:14:52;;;;;;;1.23;0.80;;;;;;;29.32;36.91;97668.22;6252037;28;20712;-51
2022/06/01 10:18:09;;;;;;;0.77;0.68;;;;;;;28.81;36.86;97669.06;6253579;28;20244;-50
2022/06/01 10:21:17;;;;;;;0.68;0.65;;;;;;;27.22;38.27;97656.44;6252082;28;20230;-53
2022/06/01 10:24:30;;;;;;;0.90;0.63;;;;;;;26.72;41.65;97655.78;6252383;28;20218;-52
2022/06/01 10:27:41;;;;;;;0.70;0.70;;;;;;;27.64;42.58;97657.31;6252951;28;20293;-49
2022/06/01 10:30:50;;;;;;;3.70;0.80;;;;;;;28.64;41.54;97660.00;6258512;28;20484;-52
2022/06/01 10:34:09;;;;;;;1.50;0.63;;;;;;;29.23;38.45;97661.50;6232720;28;20334;-52
2022/06/01 10:37:35;;;;;;;1.83;0.90;;;;;;;28.31;37.79;97674.19;6255998;28;20598;-50
2022/06/01 10:40:44;;;;;;;1.25;0.70;;;;;;;28.01;38.92;97668.81;6257113;28;20706;-53
2022/06/01 10:43:52;;;;;;;2.58;0.85;;;;;;;27.71;37.45;97671.59;6257538;28;20716;-53
2022/06/01 10:47:16;;;;;;;0.70;0.70;;;;;;;28.28;37.28;97677.34;6257314;28;20598;-53
2022/06/01 10:50:22;;;;;;;2.15;0.98;;;;;;;29.00;34.55;97669.72;6258136;28;20314;-50
2022/06/01 10:53:33;;;;;;;1.67;0.95;;;;;;;29.68;32.73;97677.03;6257101;28;20397;-54
2022/06/01 10:56:35;;;;;;;1.65;0.85;;;;;;;30.38;32.88;97673.84;6239934;28;20219;-52
2022/06/01 10:59:38;;;;;;;0.82;0.70;;;;;;;30.84;30.94;97669.09;6264499;28;20696;-53
2022/06/01 11:02:46;;;;;;;0.90;0.90;;;;;;;30.52;30.58;97661.59;6256845;28;20272;-52
2022/06/01 11:05:59;;;;;;;2.03;0.80;;;;;;;30.22;31.47;97658.38;6260441;28;20227;-52
2022/06/01 11:09:13;;;;;;;1.13;0.88;;;;;;;30.08;31.73;97655.16;6239976;28;20239;-50
2022/06/01 11:12:44;;;;;;;1.02;0.77;;;;;;;30.40;33.39;97642.59;6257878;28;20298;-50
2022/06/01 11:16:14;;;;;;;1.58;0.73;;;;;;;30.31;29.77;97644.09;6220552;28;20637;-49
2022/06/01 11:19:34;;;;;;;1.02;0.68;;;;;;;30.25;28.60;97649.69;6256617;28;20247;-49
2022/06/01 11:23:01;;;;;;;1.00;0.90;;;;;;;30.06;26.10;97649.94;6256017;28;20278;-47
2022/06/01 11:26:17;;;;;;;2.10;0.80;;;;;;;29.79;27.81;97659.00;6256715;28;20231;-47
2022/06/01 11:29:32;;;;;;;2.63;0.80;;;;;;;30.50;25.27;97643.78;6232366;28;20248;-49
2022/06/01 11:32:55;;;;;;;1.05;0.88;;;;;;;31.09;25.64;97639.44;6231565;28;20703;-47
2022/06/01 11:36:11;;;;;;;1.67;0.80;;;;;;;31.29;23.27;97634.22;6231417;28;20317;-47
2022/06/01 11:39:22;;;;;;;1.08;0.82;;;;;;;31.69;25.05;97625.63;6254475;28;20220;-47
2022/06/01 11:42:37;;;;;;;1.42;0.70;;;;;;;32.06;25.28;97627.56;6238715;28;20234;-47
2022/06/01 11:45:46;;;;;;;1.77;0.93;;;;;;;32.15;25.39;97618.59;6256256;28;20644;-49
2022/06/01 11:48:57;;;;;;;1.85;1.05;;;;;;;31.50;22.84;97633.34;6255686;28;20250;-50
2022/06/01 11:52:15;;;;;;;1.10;0.60;;;;;;;31.43;24.09;97621.00;6256098;28;20239;-46
2022/06/01 11:55:22;;;;;;;1.00;0.70;;;;;;;31.50;23.55;97616.97;6256437;28;20293;-48
2022/06/01 11:58:28;;;;;;;0.75;0.70;;;;;;;32.06;24.48;97606.53;6261604;28;20644;-52
2022/06/01 12:01:56;;;;;;;0.77;0.60;;;;;;;31.76;24.41;97606.28;6270952;28;20741;-50
2022/06/01 12:05:08;;;;;;;0.82;0.77;;;;;;;31.66;23.03;97590.66;6179154;28;20233;-50
2022/06/01 12:08:23;;;;;;;1.95;0.70;;;;;;;31.60;24.14;97597.13;6178746;28;20225;-49
2022/06/01 12:11:40;;;;;;;1.02;0.60;;;;;;;32.07;25.17;97578.13;6179143;28;20809;-49
2022/06/01 12:14:57;;;;;;;1.77;0.60;;;;;;;32.41;24.28;97578.66;6180379;28;20221;-50
2022/06/01 12:18:07;;;;;;;1.00;0.70;;;;;;;32.20;23.56;97585.91;6179605;28;20708;-49
2022/06/01 12:21:17;;;;;;;1.65;1.02;;;;;;;31.63;23.81;97563.09;6202623;28;20240;-53
2022/06/01 12:28:33;;;;;;;0.90;0.75;;;;;;;31.63;24.36;97557.63;6203329;28;20248;-49
2022/06/01 12:31:39;;;;;;;0.98;0.55;;;;;;;31.70;24.62;97556.31;6203739;28;20239;-50
2022/06/01 12:34:49;;;;;;;0.70;0.60;;;;;;;31.87;22.90;97559.72;6207741;28;20903;-48
2022/06/01 12:38:08;;;;;;;1.08;0.70;;;;;;;32.49;21.69;97553.53;6231124;28;20664;-53
2022/06/01 12:41:21;;;;;;;1.45;0.80;;;;;;;32.59;23.83;97553.59;6248196;28;20324;-52
2022/06/01 12:44:23;;;;;;;0.57;0.57;;;;;;;33.03;22.30;97549.66;6255752;28;20269;-52
2022/06/01 12:47:31;;;;;;;4.40;1.10;;;;;;;32.98;22.46;97559.50;6254522;28;20369;-51
2022/06/01 12:50:52;;;;;;;2.08;0.80;;;;;;;32.65;23.25;97551.69;6253840;28;20230;-49
2022/06/01 12:53:55;;;;;;;1.13;0.70;;;;;;;32.71;22.70;97541.66;6256283;28;20242;-51
2022/06/01 12:56:58;;;;;;;1.98;0.90;;;;;;;33.22;22.11;97548.06;6255222;28;20598;-51
2022/06/01 13:00:26;;;;;;;0.70;0.70;;;;;;;33.66;21.02;97546.44;6246144;28;20722;-53
2022/06/01 13:03:32;;;;;;;2.03;0.75;;;;;;;33.46;21.28;97540.16;6242242;28;20605;-52
2022/06/01 13:06:39;;;;;;;0.80;0.75;;;;;;;32.84;21.70;97547.41;6254149;28;20873;-49
2022/06/01 13:09:41;;;;;;;1.80;0.70;;;;;;;31.80;22.62;97544.66;6254323;28;20699;-50
2022/06/01 13:12:43;;;;;;;1.20;0.70;;;;;;;30.90;23.02;97553.59;6254451;28;20227;-51
2022/06/01 13:16:11;;;;;;;2.63;0.68;;;;;;;31.07;26.43;97552.41;6253550;28;20231;-49
2022/06/01 13:19:30;;;;;;;1.48;0.93;;;;;;;31.01;23.52;97548.00;6250091;28;20642;-51
2022/06/01 13:22:38;;;;;;;0.50;0.50;;;;;;;30.70;24.29;97544.09;6254427;28;20229;-51
2022/06/01 13:25:41;;;;;;;1.50;0.77;;;;;;;30.97;24.53;97543.28;6253920;28;20607;-50
2022/06/01 13:28:46;;;;;;;0.93;0.80;;;;;;;30.96;26.68;97542.47;6252840;28;20824;-53
2022/06/01 13:32:02;;;;;;;1.05;0.75;;;;;;;31.05;27.12;97549.09;6235990;28;20608;-49
2022/06/01 13:35:32;;;;;;;1.23;0.60;;;;;;;30.41;28.15;97546.19;6253823;28;20235;-52
2022/06/01 13:38:47;;;;;;;2.70;1.17;;;;;;;29.91;26.91;97551.72;6253796;28;20239;-49
2022/06/01 13:41:57;;;;;;;1.15;0.80;;;;;;;29.42;26.46;97561.53;6252954;28;20263;-51
2022/06/01 13:45:21;;;;;;;0.77;0.60;;;;;;;29.19;27.63;97558.91;6252882;28;20301;-52
2022/06/01 13:48:38;;;;;;;0.57;0.52;;;;;;;29.16;28.60;97565.66;6250801;28;20277;-52
2022/06/01 13:51:40;;;;;;;1.58;0.90;;;;;;;29.21;28.09;97554.91;6252926;28;20319;-48
2022/06/01 13:54:48;;;;;;;1.20;1.00;;;;;;;29.27;29.63;97556.63;6254154;28;20639;-50
2022/06/01 13:57:57;;;;;;;0.60;0.60;;;;;;;29.49;30.74;97558.66;6252391;28;20329;-49
2022/06/01 14:01:15;;;;;;;2.13;0.73;;;;;;;30.33;30.59;97552.06;6277750;28;20230;-49
2022/06/01 15:03:48;;;;;;;1.88;0.60;;;;;;;31.17;31.89;97549.00;5791189;28;20234;-47
2022/06/01 15:06:50;;;;;;;1.00;0.80;;;;;;;34.31;26.90;97543.94;6235999;28;20211;-50
2022/06/01 15:09:52;;;;;;;1.00;0.90;;;;;;;35.46;23.83;97532.66;6251975;28;20234;-50
2022/06/01 15:12:56;;;;;;;2.13;1.10;;;;;;;34.33;26.62;97539.84;6252542;28;20377;-49
2022/06/01 15:15:58;;;;;;;0.63;0.63;;;;;;;32.66;30.68;97528.72;6257040;28;20645;-49
2022/06/01 15:19:01;;;;;;;1.17;0.73;;;;;;;31.79;31.94;97529.34;6256444;28;20231;-48
2022/06/01 15:22:03;;;;;;;2.03;0.80;;;;;;;34.03;29.90;97520.72;6257130;28;20763;-45
2022/06/01 15:25:07;;;;;;;3.80;1.10;;;;;;;34.00;29.14;97510.31;6256306;28;20862;-49
2022/06/01 15:28:10;;;;;;;2.58;0.80;;;;;;;33.52;27.60;97523.47;6262019;28;20246;-47
2022/06/01 15:41:20;;;;;;;2.05;0.95;;;;;;;34.43;28.33;97504.16;6256551;28;20353;-50
2022/06/01 15:44:23;;;;;;;1.95;1.00;;;;;;;34.26;28.81;97495.44;6256097;28;20368;-50
2022/06/01 15:47:25;;;;;;;1.15;0.60;;;;;;;31.71;33.43;97505.28;6255889;28;20717;-48
2022/06/01 15:50:28;;;;;;;0.57;0.52;;;;;;;29.73;36.81;97506.56;6256252;28;20223;-47
2022/06/01 15:53:30;;;;;;;3.30;0.93;;;;;;;28.21;39.98;97505.66;6238816;28;20250;-48
2022/06/01 15:56:33;;;;;;;2.58;1.10;;;;;;;27.27;41.97;97498.53;6256016;28;20231;-46
2022/06/01 15:59:36;;;;;;;0.65;0.65;;;;;;;26.80;43.17;97501.94;6255815;28;20258;-47
2022/06/01 16:02:39;;;;;;;1.45;0.90;;;;;;;26.41;44.63;97497.06;6255769;28;20234;-46
2022/06/01 16:05:42;;;;;;;2.30;0.90;;;;;;;25.88;45.79;97489.53;6256211;28;20223;-47
2022/06/01 16:08:45;;;;;;;1.58;1.13;;;;;;;25.34;46.26;97499.22;6255830;28;20321;-46
2022/06/01 16:11:47;;;;;;;1.48;0.75;;;;;;;25.06;47.10;97501.50;6256161;28;20648;-47
2022/06/01 16:14:49;;;;;;;1.02;0.85;;;;;;;25.09;46.83;97498.34;6255504;28;20265;-48
2022/06/01 16:17:53;;;;;;;0.80;0.80;;;;;;;26.64;43.78;97496.34;6255545;28;20304;-47
2022/06/01 16:20:55;;;;;;;3.58;0.95;;;;;;;29.14;38.47;97496.31;6254562;28;20238;-48